JBU1252 KRSW-KHPN
Flight info
| Callsign | JBU1252 |
|---|---|
| Flight time | 2h 35m |
| Altitude | 35000 |
| Route | CSHEL8 VIYAP Q87 JROSS JOHAR Q109 DFENC SAWED Q108 SIE BOUNO5 |
| Aircraft | A320/M-SDE3FGHIRWY/LB1 |
Departure
| Time | 2026-04-27 15:29 |
|---|---|
| Airport | Southwest Florida International Airport (KRSW) |
Arrival
| Time | 2026-04-27 18:05 |
|---|---|
| Airport | Westchester County Airport (KHPN) |
| Time | Latitude | Longitude | Altitude | Speed | Heading |
|---|---|---|---|---|---|
| 2026-04-27 15:08 | 26.52917 | -81.75841 | 39 ft | 0 kts | 58° |
| 2026-04-27 15:18 | 26.52917 | -81.75842 | 39 ft | 0 kts | 58° |
| 2026-04-27 15:21 | 26.52915 | -81.75845 | 38 ft | 2 kts | 54° |
| 2026-04-27 15:21 | 26.52913 | -81.75851 | 38 ft | 3 kts | 68° |
| 2026-04-27 15:21 | 26.52905 | -81.75872 | 36 ft | 3 kts | 63° |
| 2026-04-27 15:21 | 26.52895 | -81.75891 | 37 ft | 3 kts | 40° |
| 2026-04-27 15:22 | 26.52884 | -81.75899 | 38 ft | 2 kts | 333° |
| 2026-04-27 15:22 | 26.52877 | -81.75895 | 34 ft | 1 kts | 324° |
| 2026-04-27 15:24 | 26.52885 | -81.75901 | 38 ft | 4 kts | 325° |
| 2026-04-27 15:25 | 26.52930 | -81.75936 | 37 ft | 11 kts | 325° |
| 2026-04-27 15:25 | 26.53004 | -81.75994 | 37 ft | 15 kts | 323° |
| 2026-04-27 15:25 | 26.53092 | -81.76072 | 35 ft | 17 kts | 304° |
| 2026-04-27 15:25 | 26.53049 | -81.76181 | 33 ft | 15 kts | 232° |
| 2026-04-27 15:26 | 26.52980 | -81.76285 | 31 ft | 17 kts | 234° |
| 2026-04-27 15:26 | 26.52910 | -81.76393 | 31 ft | 18 kts | 234° |
| 2026-04-27 15:26 | 26.52835 | -81.76508 | 32 ft | 19 kts | 234° |
| 2026-04-27 15:26 | 26.52759 | -81.76627 | 33 ft | 19 kts | 234° |
| 2026-04-27 15:27 | 26.52682 | -81.76746 | 36 ft | 19 kts | 234° |
| 2026-04-27 15:27 | 26.52607 | -81.76870 | 34 ft | 14 kts | 236° |
| 2026-04-27 15:27 | 26.52600 | -81.76944 | 35 ft | 10 kts | 309° |
| 2026-04-27 15:27 | 26.52660 | -81.76976 | 34 ft | 10 kts | 19° |
| 2026-04-27 15:28 | 26.52686 | -81.76941 | 36 ft | 0 kts | 57° |
| 2026-04-27 15:28 | 26.52689 | -81.76937 | 36 ft | 3 kts | 56° |
| 2026-04-27 15:28 | 26.52783 | -81.76794 | 37 ft | 54 kts | 53° |
| 2026-04-27 15:29 | 26.53132 | -81.76259 | 33 ft | 113 kts | 54° |
| 2026-04-27 15:29 | 26.53688 | -81.75411 | 35 ft | 157 kts | 53° |
| 2026-04-27 15:29 | 26.54360 | -81.74396 | 476 ft | 159 kts | 52° |
| 2026-04-27 15:29 | 26.55007 | -81.73421 | 1150 ft | 154 kts | 49° |
| 2026-04-27 15:30 | 26.55887 | -81.72756 | 1585 ft | 162 kts | 12° |
| 2026-04-27 15:30 | 26.57065 | -81.72760 | 1851 ft | 182 kts | 352° |
| 2026-04-27 15:30 | 26.58344 | -81.73138 | 2278 ft | 198 kts | 347° |
| 2026-04-27 15:30 | 26.59725 | -81.73631 | 2550 ft | 220 kts | 344° |
| 2026-04-27 15:31 | 26.61252 | -81.74204 | 2935 ft | 241 kts | 344° |
| 2026-04-27 15:31 | 26.62946 | -81.74587 | 3462 ft | 256 kts | 356° |
| 2026-04-27 15:31 | 26.64740 | -81.74661 | 4256 ft | 260 kts | 2° |
| 2026-04-27 15:31 | 26.66557 | -81.74620 | 5127 ft | 263 kts | 3° |
| 2026-04-27 15:32 | 26.68397 | -81.74545 | 5911 ft | 267 kts | 2° |
| 2026-04-27 15:32 | 26.70266 | -81.74480 | 6718 ft | 270 kts | 2° |
| 2026-04-27 15:32 | 26.72159 | -81.74437 | 7509 ft | 273 kts | 1° |
| 2026-04-27 15:32 | 26.74071 | -81.74414 | 8249 ft | 276 kts | 1° |
| 2026-04-27 15:33 | 26.75992 | -81.74405 | 8993 ft | 279 kts | 0° |
| 2026-04-27 15:33 | 26.77956 | -81.74403 | 9737 ft | 282 kts | 0° |
| 2026-04-27 15:33 | 26.79941 | -81.74405 | 10278 ft | 293 kts | 359° |
| 2026-04-27 15:33 | 26.82060 | -81.74411 | 10449 ft | 315 kts | 360° |
| 2026-04-27 15:34 | 26.84294 | -81.74419 | 10579 ft | 336 kts | 360° |
| 2026-04-27 15:34 | 26.86705 | -81.74427 | 10745 ft | 356 kts | 359° |
| 2026-04-27 15:34 | 26.89209 | -81.74434 | 11241 ft | 363 kts | 359° |
| 2026-04-27 15:34 | 26.91746 | -81.74441 | 11802 ft | 367 kts | 359° |
| 2026-04-27 15:35 | 26.94315 | -81.74449 | 12364 ft | 370 kts | 359° |
| 2026-04-27 15:35 | 26.96063 | -81.74455 | 12735 ft | 373 kts | 359° |
| 2026-04-27 15:35 | 26.98637 | -81.74463 | 13295 ft | 377 kts | 359° |
| 2026-04-27 15:35 | 27.01267 | -81.74510 | 13833 ft | 380 kts | 354° |
| 2026-04-27 15:36 | 27.03879 | -81.75000 | 14339 ft | 382 kts | 343° |
| 2026-04-27 15:36 | 27.06424 | -81.75868 | 14861 ft | 383 kts | 342° |
| 2026-04-27 15:36 | 27.08977 | -81.76751 | 15403 ft | 385 kts | 342° |
| 2026-04-27 15:36 | 27.11545 | -81.77636 | 15967 ft | 387 kts | 342° |
| 2026-04-27 15:37 | 27.14123 | -81.78526 | 16521 ft | 389 kts | 342° |
| 2026-04-27 15:37 | 27.16715 | -81.79422 | 17106 ft | 390 kts | 341° |
| 2026-04-27 15:37 | 27.19311 | -81.80323 | 17703 ft | 392 kts | 342° |
| 2026-04-27 15:37 | 27.21922 | -81.81229 | 18291 ft | 393 kts | 341° |
| 2026-04-27 15:38 | 27.24544 | -81.82136 | 18787 ft | 395 kts | 342° |
| 2026-04-27 15:38 | 27.27178 | -81.83045 | 19268 ft | 398 kts | 342° |
| 2026-04-27 15:38 | 27.29835 | -81.83963 | 19749 ft | 400 kts | 342° |
| 2026-04-27 15:38 | 27.32506 | -81.84888 | 20211 ft | 403 kts | 342° |
| 2026-04-27 15:39 | 27.35191 | -81.85823 | 20654 ft | 405 kts | 342° |
| 2026-04-27 15:39 | 27.37891 | -81.86763 | 21072 ft | 408 kts | 342° |
| 2026-04-27 15:39 | 27.40613 | -81.87707 | 21484 ft | 410 kts | 342° |
| 2026-04-27 15:39 | 27.43139 | -81.88578 | 21841 ft | 412 kts | 342° |
| 2026-04-27 15:40 | 27.45888 | -81.89528 | 22215 ft | 414 kts | 342° |
| 2026-04-27 15:40 | 27.46822 | -81.89852 | 22335 ft | 415 kts | 342° |
| 2026-04-27 15:40 | 27.47562 | -81.90109 | 22438 ft | 416 kts | 342° |
| 2026-04-27 15:40 | 27.49220 | -81.90692 | 22873 ft | 412 kts | 341° |
| 2026-04-27 15:41 | 27.51977 | -81.91659 | 23092 ft | 418 kts | 342° |
| 2026-04-27 15:41 | 27.54767 | -81.92632 | 23393 ft | 422 kts | 342° |
| 2026-04-27 15:41 | 27.57576 | -81.93608 | 23717 ft | 424 kts | 342° |
| 2026-04-27 15:41 | 27.60404 | -81.94590 | 24024 ft | 426 kts | 342° |
| 2026-04-27 15:42 | 27.63240 | -81.95575 | 24332 ft | 427 kts | 342° |
| 2026-04-27 15:42 | 27.66080 | -81.96564 | 24657 ft | 428 kts | 342° |
| 2026-04-27 15:42 | 27.68926 | -81.97561 | 24970 ft | 429 kts | 341° |
| 2026-04-27 15:42 | 27.71785 | -81.98565 | 25282 ft | 430 kts | 341° |
| 2026-04-27 15:43 | 27.74596 | -81.99550 | 25696 ft | 428 kts | 341° |
| 2026-04-27 15:43 | 27.77438 | -82.00543 | 26161 ft | 426 kts | 342° |
| 2026-04-27 15:43 | 27.80261 | -82.01518 | 26622 ft | 424 kts | 342° |
| 2026-04-27 15:43 | 27.83076 | -82.02469 | 27085 ft | 422 kts | 342° |
| 2026-04-27 15:44 | 27.85886 | -82.03408 | 27560 ft | 419 kts | 342° |
| 2026-04-27 15:44 | 27.88676 | -82.04339 | 28032 ft | 417 kts | 342° |
| 2026-04-27 15:44 | 27.91452 | -82.05265 | 28505 ft | 415 kts | 342° |
| 2026-04-27 15:44 | 27.94221 | -82.06190 | 28986 ft | 413 kts | 342° |
| 2026-04-27 15:45 | 27.96973 | -82.07111 | 29455 ft | 411 kts | 342° |
| 2026-04-27 15:45 | 27.99708 | -82.08029 | 29929 ft | 409 kts | 342° |
| 2026-04-27 15:45 | 28.02427 | -82.08948 | 30367 ft | 408 kts | 342° |
| 2026-04-27 15:45 | 28.05144 | -82.09869 | 30747 ft | 406 kts | 342° |
| 2026-04-27 15:46 | 28.07860 | -82.10734 | 31102 ft | 406 kts | 346° |
| 2026-04-27 15:46 | 28.10662 | -82.11177 | 31458 ft | 407 kts | 353° |
| 2026-04-27 15:46 | 28.13481 | -82.11443 | 31819 ft | 407 kts | 353° |
| 2026-04-27 15:46 | 28.16299 | -82.11709 | 32175 ft | 406 kts | 353° |
| 2026-04-27 15:47 | 28.19113 | -82.11975 | 32536 ft | 405 kts | 352° |
| 2026-04-27 15:47 | 28.21919 | -82.12246 | 32896 ft | 404 kts | 352° |
| 2026-04-27 15:47 | 28.24717 | -82.12524 | 33259 ft | 404 kts | 352° |
| 2026-04-27 15:47 | 28.27513 | -82.12803 | 33630 ft | 403 kts | 352° |
| 2026-04-27 15:48 | 28.30308 | -82.13076 | 33990 ft | 402 kts | 352° |
| 2026-04-27 15:48 | 28.33092 | -82.13344 | 34292 ft | 401 kts | 352° |
| 2026-04-27 15:48 | 28.35874 | -82.13609 | 34575 ft | 401 kts | 352° |
| 2026-04-27 15:49 | 28.41427 | -82.14141 | 35053 ft | 400 kts | 352° |
| 2026-04-27 15:49 | 28.47040 | -82.14473 | 35106 ft | 413 kts | 1° |
| 2026-04-27 15:50 | 28.52740 | -82.12969 | 35102 ft | 428 kts | 14° |
| 2026-04-27 15:50 | 28.58388 | -82.10806 | 35109 ft | 429 kts | 14° |
| 2026-04-27 15:51 | 28.64040 | -82.08656 | 35116 ft | 428 kts | 14° |
| 2026-04-27 15:51 | 28.69686 | -82.06511 | 35118 ft | 427 kts | 14° |
| 2026-04-27 15:52 | 28.75322 | -82.04367 | 35121 ft | 427 kts | 14° |
| 2026-04-27 15:52 | 28.80963 | -82.02216 | 35129 ft | 427 kts | 14° |
| 2026-04-27 15:53 | 28.86555 | -82.00078 | 35135 ft | 427 kts | 14° |
| 2026-04-27 15:53 | 28.92179 | -81.97918 | 35136 ft | 426 kts | 14° |
| 2026-04-27 15:54 | 28.97802 | -81.95756 | 35137 ft | 426 kts | 14° |
| 2026-04-27 15:54 | 29.03429 | -81.93599 | 35132 ft | 426 kts | 14° |
| 2026-04-27 15:55 | 29.09055 | -81.91440 | 35130 ft | 427 kts | 14° |
| 2026-04-27 15:55 | 29.14689 | -81.89281 | 35138 ft | 427 kts | 15° |
| 2026-04-27 15:56 | 29.20327 | -81.87115 | 35135 ft | 428 kts | 15° |
| 2026-04-27 15:56 | 29.25974 | -81.84939 | 35132 ft | 429 kts | 15° |
| 2026-04-27 15:57 | 29.31629 | -81.82756 | 35124 ft | 429 kts | 15° |
| 2026-04-27 15:57 | 29.37295 | -81.80559 | 35127 ft | 430 kts | 15° |
| 2026-04-27 15:58 | 29.42971 | -81.78352 | 35124 ft | 431 kts | 16° |
| 2026-04-27 15:58 | 29.48667 | -81.76148 | 35130 ft | 432 kts | 16° |
| 2026-04-27 15:59 | 29.54376 | -81.73947 | 35128 ft | 433 kts | 16° |
| 2026-04-27 15:59 | 29.60094 | -81.71731 | 35134 ft | 434 kts | 16° |
| 2026-04-27 16:00 | 29.65782 | -81.69514 | 35135 ft | 435 kts | 16° |
| 2026-04-27 16:00 | 29.71528 | -81.67290 | 35132 ft | 436 kts | 16° |
| 2026-04-27 16:01 | 29.77300 | -81.65122 | 35142 ft | 437 kts | 15° |
| 2026-04-27 16:01 | 29.83096 | -81.62983 | 35151 ft | 438 kts | 15° |
| 2026-04-27 16:02 | 29.88893 | -81.60825 | 35163 ft | 438 kts | 16° |
| 2026-04-27 16:02 | 29.94696 | -81.58651 | 35171 ft | 439 kts | 16° |
| 2026-04-27 16:03 | 30.00506 | -81.56466 | 35182 ft | 440 kts | 16° |
| 2026-04-27 16:03 | 30.06324 | -81.54275 | 35183 ft | 440 kts | 16° |
| 2026-04-27 16:04 | 30.12145 | -81.52084 | 35200 ft | 440 kts | 15° |
| 2026-04-27 16:04 | 30.17935 | -81.49902 | 35204 ft | 440 kts | 15° |
| 2026-04-27 16:05 | 30.23767 | -81.47710 | 35213 ft | 441 kts | 15° |
| 2026-04-27 16:05 | 30.29598 | -81.45509 | 35215 ft | 441 kts | 15° |
| 2026-04-27 16:06 | 30.35432 | -81.43294 | 35219 ft | 441 kts | 15° |
| 2026-04-27 16:06 | 30.41269 | -81.41086 | 35220 ft | 441 kts | 15° |
| 2026-04-27 16:07 | 30.47212 | -81.39547 | 35222 ft | 436 kts | 0° |
| 2026-04-27 16:07 | 30.53243 | -81.39729 | 35237 ft | 433 kts | 355° |
| 2026-04-27 16:08 | 30.59265 | -81.40048 | 35240 ft | 433 kts | 355° |
| 2026-04-27 16:08 | 30.65291 | -81.40365 | 35241 ft | 433 kts | 355° |
| 2026-04-27 16:09 | 30.71320 | -81.40686 | 35244 ft | 433 kts | 354° |
| 2026-04-27 16:09 | 30.80349 | -81.41162 | 35236 ft | 433 kts | 354° |
| 2026-04-27 16:10 | 30.92375 | -81.41803 | 35231 ft | 432 kts | 354° |
| 2026-04-27 16:11 | 31.01379 | -81.42282 | 35237 ft | 432 kts | 354° |
| 2026-04-27 16:12 | 31.10343 | -81.42761 | 35241 ft | 431 kts | 354° |
| 2026-04-27 16:13 | 31.19328 | -81.43251 | 35242 ft | 430 kts | 354° |
| 2026-04-27 16:13 | 31.25320 | -81.42941 | 35265 ft | 436 kts | 9° |
| 2026-04-27 16:13 | 31.28236 | -81.41908 | 35270 ft | 441 kts | 18° |
| 2026-04-27 16:14 | 31.39413 | -81.35874 | 35262 ft | 443 kts | 20° |
| 2026-04-27 16:15 | 31.50587 | -81.29817 | 35254 ft | 442 kts | 20° |
| 2026-04-27 16:16 | 31.61744 | -81.23737 | 35249 ft | 442 kts | 20° |
| 2026-04-27 16:17 | 31.72891 | -81.17653 | 35246 ft | 441 kts | 19° |
| 2026-04-27 16:18 | 31.84014 | -81.11547 | 35248 ft | 441 kts | 19° |
| 2026-04-27 16:19 | 31.89569 | -81.08498 | 35245 ft | 441 kts | 19° |
| 2026-04-27 16:20 | 32.00637 | -81.02427 | 35240 ft | 440 kts | 19° |
| 2026-04-27 16:21 | 32.08950 | -80.97794 | 35250 ft | 440 kts | 20° |
| 2026-04-27 16:22 | 32.20040 | -80.91547 | 35286 ft | 440 kts | 19° |
| 2026-04-27 16:22 | 32.28308 | -80.86913 | 35294 ft | 440 kts | 19° |
| 2026-04-27 16:23 | 32.36603 | -80.82257 | 35292 ft | 440 kts | 19° |
| 2026-04-27 16:24 | 32.42131 | -80.79140 | 35304 ft | 440 kts | 19° |
| 2026-04-27 16:25 | 32.53172 | -80.72892 | 35303 ft | 440 kts | 19° |
| 2026-04-27 16:26 | 32.63272 | -80.67174 | 35295 ft | 440 kts | 19° |
| 2026-04-27 16:27 | 32.73737 | -80.59541 | 35300 ft | 457 kts | 40° |
| 2026-04-27 16:28 | 32.84801 | -80.45960 | 35305 ft | 457 kts | 39° |
| 2026-04-27 16:29 | 32.95838 | -80.32385 | 35291 ft | 458 kts | 39° |
| 2026-04-27 16:30 | 33.04680 | -80.21465 | 35292 ft | 458 kts | 39° |
| 2026-04-27 16:31 | 33.15731 | -80.07786 | 35310 ft | 458 kts | 39° |
| 2026-04-27 16:32 | 33.22357 | -79.99549 | 35306 ft | 458 kts | 39° |
| 2026-04-27 16:33 | 33.28981 | -79.91306 | 35297 ft | 459 kts | 40° |
| 2026-04-27 16:33 | 33.33409 | -79.85785 | 35291 ft | 460 kts | 40° |
| 2026-04-27 16:34 | 33.37802 | -79.80282 | 35281 ft | 461 kts | 40° |
| 2026-04-27 16:34 | 33.42241 | -79.74724 | 35290 ft | 462 kts | 40° |
| 2026-04-27 16:35 | 33.46680 | -79.69166 | 35298 ft | 462 kts | 40° |
| 2026-04-27 16:36 | 33.53347 | -79.60798 | 35303 ft | 463 kts | 40° |
| 2026-04-27 16:36 | 33.57785 | -79.55206 | 35304 ft | 463 kts | 40° |
| 2026-04-27 16:37 | 33.62232 | -79.49609 | 35305 ft | 463 kts | 40° |
| 2026-04-27 16:37 | 33.66672 | -79.43994 | 35301 ft | 464 kts | 40° |
| 2026-04-27 16:38 | 33.71111 | -79.38365 | 35310 ft | 464 kts | 40° |
| 2026-04-27 16:38 | 33.75555 | -79.32743 | 35305 ft | 464 kts | 40° |
| 2026-04-27 16:39 | 33.80002 | -79.27108 | 35319 ft | 465 kts | 40° |
| 2026-04-27 16:39 | 33.84441 | -79.21461 | 35307 ft | 465 kts | 40° |
| 2026-04-27 16:40 | 33.88875 | -79.15809 | 35310 ft | 465 kts | 40° |
| 2026-04-27 16:40 | 33.93318 | -79.10145 | 35308 ft | 465 kts | 40° |
| 2026-04-27 16:41 | 33.97724 | -79.04521 | 35310 ft | 465 kts | 40° |
| 2026-04-27 16:41 | 34.02156 | -78.98848 | 35304 ft | 465 kts | 41° |
| 2026-04-27 16:42 | 34.06585 | -78.93169 | 35304 ft | 465 kts | 41° |
| 2026-04-27 16:42 | 34.11007 | -78.87485 | 35304 ft | 465 kts | 41° |
| 2026-04-27 16:43 | 34.15431 | -78.81799 | 35310 ft | 465 kts | 41° |
| 2026-04-27 16:43 | 34.19858 | -78.76108 | 35310 ft | 465 kts | 41° |
| 2026-04-27 16:44 | 34.24277 | -78.70413 | 35311 ft | 465 kts | 41° |
| 2026-04-27 16:44 | 34.28694 | -78.64711 | 35308 ft | 465 kts | 42° |
| 2026-04-27 16:45 | 34.33175 | -78.59090 | 35306 ft | 461 kts | 36° |
| 2026-04-27 16:45 | 34.38184 | -78.54305 | 35297 ft | 459 kts | 33° |
| 2026-04-27 16:46 | 34.43220 | -78.49549 | 35302 ft | 460 kts | 33° |
| 2026-04-27 16:46 | 34.48229 | -78.44798 | 35292 ft | 461 kts | 33° |
| 2026-04-27 16:47 | 34.53281 | -78.40005 | 35295 ft | 462 kts | 33° |
| 2026-04-27 16:47 | 34.58348 | -78.35205 | 35287 ft | 462 kts | 34° |
| 2026-04-27 16:48 | 34.63411 | -78.30392 | 35289 ft | 463 kts | 34° |
| 2026-04-27 16:48 | 34.68489 | -78.25564 | 35294 ft | 463 kts | 34° |
| 2026-04-27 16:49 | 34.76103 | -78.18289 | 35286 ft | 465 kts | 34° |
| 2026-04-27 16:49 | 34.81185 | -78.13420 | 35292 ft | 465 kts | 35° |
| 2026-04-27 16:50 | 34.86283 | -78.08545 | 35290 ft | 466 kts | 35° |
| 2026-04-27 16:50 | 34.91392 | -78.03672 | 35308 ft | 467 kts | 35° |
| 2026-04-27 16:51 | 34.96516 | -77.98785 | 35302 ft | 468 kts | 35° |
| 2026-04-27 16:51 | 35.01646 | -77.93872 | 35309 ft | 469 kts | 35° |
| 2026-04-27 16:52 | 35.06779 | -77.88943 | 35306 ft | 470 kts | 36° |
| 2026-04-27 16:52 | 35.11890 | -77.84030 | 35316 ft | 471 kts | 36° |
| 2026-04-27 16:53 | 35.17050 | -77.79079 | 35312 ft | 472 kts | 36° |
| 2026-04-27 16:53 | 35.22214 | -77.74109 | 35320 ft | 473 kts | 36° |
| 2026-04-27 16:54 | 35.27383 | -77.69115 | 35316 ft | 474 kts | 36° |
| 2026-04-27 16:54 | 35.32563 | -77.64097 | 35318 ft | 475 kts | 37° |
| 2026-04-27 16:55 | 35.37754 | -77.59070 | 35311 ft | 476 kts | 37° |
| 2026-04-27 16:55 | 35.42961 | -77.54025 | 35317 ft | 477 kts | 37° |
| 2026-04-27 16:56 | 35.48177 | -77.48966 | 35290 ft | 479 kts | 37° |
| 2026-04-27 16:56 | 35.53412 | -77.43874 | 35292 ft | 481 kts | 37° |
| 2026-04-27 16:57 | 35.58656 | -77.38751 | 35288 ft | 483 kts | 37° |
| 2026-04-27 16:57 | 35.61193 | -77.36248 | 35774 ft | 444 kts | 32° |
| 2026-04-27 16:57 | 35.63505 | -77.33930 | 36611 ft | 425 kts | 33° |
| 2026-04-27 16:58 | 35.65802 | -77.31644 | 36238 ft | 423 kts | 32° |
| 2026-04-27 16:58 | 35.68089 | -77.29400 | 35728 ft | 419 kts | 31° |
| 2026-04-27 16:58 | 35.70375 | -77.27198 | 35366 ft | 416 kts | 31° |
| 2026-04-27 16:58 | 35.72665 | -77.25002 | 35264 ft | 417 kts | 31° |
| 2026-04-27 16:59 | 35.77250 | -77.20568 | 35289 ft | 420 kts | 31° |
| 2026-04-27 16:59 | 35.81816 | -77.16086 | 35296 ft | 420 kts | 31° |
| 2026-04-27 17:00 | 35.88650 | -77.09325 | 35291 ft | 420 kts | 31° |
| 2026-04-27 17:01 | 35.93310 | -77.05058 | 35299 ft | 412 kts | 24° |
| 2026-04-27 17:01 | 35.98255 | -77.01478 | 35306 ft | 412 kts | 24° |
| 2026-04-27 17:02 | 36.03166 | -76.97900 | 35307 ft | 413 kts | 24° |
| 2026-04-27 17:02 | 36.08110 | -76.94286 | 35324 ft | 413 kts | 24° |
| 2026-04-27 17:03 | 36.13053 | -76.90669 | 35323 ft | 413 kts | 24° |
| 2026-04-27 17:03 | 36.17990 | -76.87055 | 35325 ft | 412 kts | 24° |
| 2026-04-27 17:04 | 36.22929 | -76.83439 | 35325 ft | 412 kts | 24° |
| 2026-04-27 17:04 | 36.27859 | -76.79822 | 35327 ft | 412 kts | 24° |
| 2026-04-27 17:05 | 36.32789 | -76.76200 | 35329 ft | 412 kts | 24° |
| 2026-04-27 17:05 | 36.37719 | -76.72565 | 35334 ft | 412 kts | 24° |
| 2026-04-27 17:06 | 36.42648 | -76.68934 | 35338 ft | 412 kts | 24° |
| 2026-04-27 17:06 | 36.47582 | -76.65292 | 35340 ft | 412 kts | 24° |
| 2026-04-27 17:07 | 36.52512 | -76.61653 | 35340 ft | 412 kts | 24° |
| 2026-04-27 17:07 | 36.57432 | -76.58002 | 35341 ft | 412 kts | 24° |
| 2026-04-27 17:08 | 36.62315 | -76.54368 | 35341 ft | 412 kts | 24° |
| 2026-04-27 17:08 | 36.67231 | -76.50712 | 35342 ft | 412 kts | 24° |
| 2026-04-27 17:09 | 36.72147 | -76.47055 | 35341 ft | 411 kts | 24° |
| 2026-04-27 17:09 | 36.77061 | -76.43398 | 35342 ft | 412 kts | 24° |
| 2026-04-27 17:10 | 36.81979 | -76.39726 | 35347 ft | 412 kts | 24° |
| 2026-04-27 17:10 | 36.86894 | -76.36060 | 35343 ft | 411 kts | 24° |
| 2026-04-27 17:11 | 36.91802 | -76.32380 | 35345 ft | 411 kts | 24° |
| 2026-04-27 17:11 | 36.99163 | -76.26858 | 35346 ft | 411 kts | 24° |
| 2026-04-27 17:12 | 37.06518 | -76.21329 | 35337 ft | 411 kts | 24° |
| 2026-04-27 17:13 | 37.11422 | -76.17646 | 35339 ft | 411 kts | 24° |
| 2026-04-27 17:13 | 37.16322 | -76.13952 | 35340 ft | 411 kts | 24° |
| 2026-04-27 17:14 | 37.21213 | -76.10246 | 35341 ft | 411 kts | 24° |
| 2026-04-27 17:14 | 37.26102 | -76.06531 | 35340 ft | 410 kts | 24° |
| 2026-04-27 17:15 | 37.30984 | -76.02829 | 35337 ft | 410 kts | 24° |
| 2026-04-27 17:15 | 37.35839 | -75.99152 | 35340 ft | 410 kts | 24° |
| 2026-04-27 17:16 | 37.40722 | -75.95448 | 35339 ft | 410 kts | 24° |
| 2026-04-27 17:16 | 37.45593 | -75.91742 | 35341 ft | 409 kts | 24° |
| 2026-04-27 17:17 | 37.50461 | -75.88018 | 35337 ft | 409 kts | 24° |
| 2026-04-27 17:17 | 37.55329 | -75.84298 | 35339 ft | 409 kts | 23° |
| 2026-04-27 17:18 | 37.62667 | -75.78824 | 35340 ft | 408 kts | 23° |
| 2026-04-27 17:18 | 37.67557 | -75.75172 | 35338 ft | 409 kts | 23° |
| 2026-04-27 17:19 | 37.72451 | -75.71503 | 35339 ft | 409 kts | 23° |
| 2026-04-27 17:19 | 37.77337 | -75.67829 | 35339 ft | 409 kts | 23° |
| 2026-04-27 17:20 | 37.78962 | -75.66604 | 35453 ft | 413 kts | 26° |
| 2026-04-27 17:20 | 37.81470 | -75.64719 | 35312 ft | 425 kts | 26° |
| 2026-04-27 17:20 | 37.86611 | -75.60749 | 35310 ft | 441 kts | 28° |
| 2026-04-27 17:21 | 37.91759 | -75.56274 | 35315 ft | 457 kts | 31° |
| 2026-04-27 17:21 | 37.97023 | -75.51528 | 35310 ft | 470 kts | 31° |
| 2026-04-27 17:22 | 38.02397 | -75.46771 | 35312 ft | 471 kts | 30° |
| 2026-04-27 17:22 | 38.07817 | -75.42103 | 35308 ft | 471 kts | 28° |
| 2026-04-27 17:23 | 38.13321 | -75.37639 | 35313 ft | 469 kts | 27° |
| 2026-04-27 17:23 | 38.18839 | -75.33233 | 35306 ft | 468 kts | 27° |
| 2026-04-27 17:24 | 38.24414 | -75.29108 | 35325 ft | 462 kts | 18° |
| 2026-04-27 17:24 | 38.30502 | -75.26974 | 35325 ft | 450 kts | 4° |
| 2026-04-27 17:25 | 38.36686 | -75.25695 | 35334 ft | 450 kts | 4° |
| 2026-04-27 17:25 | 38.42856 | -75.24407 | 35334 ft | 449 kts | 4° |
| 2026-04-27 17:26 | 38.49016 | -75.23105 | 35338 ft | 448 kts | 4° |
| 2026-04-27 17:26 | 38.55167 | -75.21806 | 35337 ft | 447 kts | 4° |
| 2026-04-27 17:27 | 38.61302 | -75.20513 | 35342 ft | 446 kts | 4° |
| 2026-04-27 17:27 | 38.67416 | -75.19137 | 35333 ft | 449 kts | 9° |
| 2026-04-27 17:28 | 38.73157 | -75.15825 | 35338 ft | 462 kts | 30° |
| 2026-04-27 17:29 | 38.80854 | -75.08314 | 35342 ft | 463 kts | 32° |
| 2026-04-27 17:29 | 38.85971 | -75.03313 | 35348 ft | 462 kts | 32° |
| 2026-04-27 17:30 | 38.91070 | -74.98304 | 35351 ft | 461 kts | 32° |
| 2026-04-27 17:30 | 38.98688 | -74.90794 | 35347 ft | 459 kts | 32° |
| 2026-04-27 17:31 | 39.03749 | -74.85792 | 35350 ft | 458 kts | 32° |
| 2026-04-27 17:31 | 39.08797 | -74.80790 | 35344 ft | 458 kts | 32° |
| 2026-04-27 17:32 | 39.16262 | -74.73199 | 35340 ft | 458 kts | 33° |
| 2026-04-27 17:33 | 39.21198 | -74.68019 | 35331 ft | 457 kts | 33° |
| 2026-04-27 17:33 | 39.26132 | -74.62857 | 35333 ft | 456 kts | 33° |
| 2026-04-27 17:34 | 39.31074 | -74.57723 | 35330 ft | 455 kts | 33° |
| 2026-04-27 17:34 | 39.36011 | -74.52599 | 35332 ft | 455 kts | 33° |
| 2026-04-27 17:35 | 39.40931 | -74.47466 | 35334 ft | 454 kts | 33° |
| 2026-04-27 17:35 | 39.45835 | -74.42330 | 35333 ft | 453 kts | 33° |
| 2026-04-27 17:36 | 39.50737 | -74.37196 | 35331 ft | 453 kts | 33° |
| 2026-04-27 17:36 | 39.55627 | -74.32065 | 35333 ft | 452 kts | 33° |
| 2026-04-27 17:37 | 39.60511 | -74.26930 | 35339 ft | 452 kts | 33° |
| 2026-04-27 17:37 | 39.65386 | -74.21801 | 35349 ft | 451 kts | 33° |
| 2026-04-27 17:38 | 39.70237 | -74.16677 | 35229 ft | 448 kts | 33° |
| 2026-04-27 17:38 | 39.72659 | -74.14115 | 34630 ft | 447 kts | 33° |
| 2026-04-27 17:38 | 39.75071 | -74.11566 | 33945 ft | 446 kts | 32° |
| 2026-04-27 17:38 | 39.77477 | -74.09018 | 33179 ft | 447 kts | 33° |
| 2026-04-27 17:39 | 39.79888 | -74.06469 | 32401 ft | 448 kts | 33° |
| 2026-04-27 17:39 | 39.82292 | -74.03923 | 31755 ft | 441 kts | 32° |
| 2026-04-27 17:39 | 39.84644 | -74.01420 | 31243 ft | 433 kts | 32° |
| 2026-04-27 17:39 | 39.86967 | -73.98948 | 30510 ft | 432 kts | 32° |
| 2026-04-27 17:40 | 39.89299 | -73.96473 | 29560 ft | 433 kts | 32° |
| 2026-04-27 17:40 | 39.91642 | -73.93990 | 28554 ft | 435 kts | 32° |
| 2026-04-27 17:40 | 39.93993 | -73.91492 | 27525 ft | 437 kts | 33° |
| 2026-04-27 17:40 | 39.96353 | -73.88978 | 26485 ft | 439 kts | 33° |
| 2026-04-27 17:41 | 39.98711 | -73.86457 | 25674 ft | 436 kts | 33° |
| 2026-04-27 17:41 | 40.01038 | -73.83960 | 24984 ft | 430 kts | 34° |
| 2026-04-27 17:41 | 40.03332 | -73.81497 | 24290 ft | 425 kts | 34° |
| 2026-04-27 17:41 | 40.05604 | -73.79062 | 23566 ft | 420 kts | 34° |
| 2026-04-27 17:42 | 40.07851 | -73.76655 | 22792 ft | 415 kts | 34° |
| 2026-04-27 17:42 | 40.10071 | -73.74274 | 22036 ft | 411 kts | 34° |
| 2026-04-27 17:42 | 40.12269 | -73.71916 | 21303 ft | 407 kts | 34° |
| 2026-04-27 17:42 | 40.14443 | -73.69582 | 20583 ft | 403 kts | 35° |
| 2026-04-27 17:43 | 40.16597 | -73.67270 | 19880 ft | 399 kts | 35° |
| 2026-04-27 17:43 | 40.18736 | -73.64973 | 19210 ft | 396 kts | 36° |
| 2026-04-27 17:43 | 40.20851 | -73.62692 | 18575 ft | 393 kts | 36° |
| 2026-04-27 17:43 | 40.22920 | -73.60454 | 17876 ft | 390 kts | 36° |
| 2026-04-27 17:44 | 40.25002 | -73.58204 | 17253 ft | 387 kts | 36° |
| 2026-04-27 17:44 | 40.27074 | -73.55964 | 17024 ft | 387 kts | 36° |
| 2026-04-27 17:44 | 40.29149 | -73.53720 | 17012 ft | 387 kts | 36° |
| 2026-04-27 17:44 | 40.31229 | -73.51466 | 17015 ft | 388 kts | 37° |
| 2026-04-27 17:45 | 40.33307 | -73.49215 | 17015 ft | 388 kts | 36° |
| 2026-04-27 17:45 | 40.35440 | -73.47058 | 17015 ft | 386 kts | 30° |
| 2026-04-27 17:45 | 40.37798 | -73.45419 | 17014 ft | 383 kts | 20° |
| 2026-04-27 17:45 | 40.40322 | -73.44351 | 17015 ft | 381 kts | 14° |
| 2026-04-27 17:46 | 40.42880 | -73.43445 | 17015 ft | 381 kts | 14° |
| 2026-04-27 17:46 | 40.45441 | -73.42532 | 16888 ft | 378 kts | 14° |
| 2026-04-27 17:46 | 40.47972 | -73.41626 | 16305 ft | 375 kts | 14° |
| 2026-04-27 17:46 | 40.50440 | -73.40741 | 16158 ft | 360 kts | 14° |
| 2026-04-27 17:47 | 40.52808 | -73.39890 | 16031 ft | 345 kts | 14° |
| 2026-04-27 17:47 | 40.54320 | -73.39346 | 15946 ft | 335 kts | 14° |
| 2026-04-27 17:47 | 40.57249 | -73.38290 | 15783 ft | 318 kts | 14° |
| 2026-04-27 17:47 | 40.59342 | -73.37530 | 15658 ft | 306 kts | 14° |
| 2026-04-27 17:48 | 40.61355 | -73.36797 | 15533 ft | 295 kts | 14° |
| 2026-04-27 17:48 | 40.63307 | -73.36088 | 15339 ft | 288 kts | 14° |
| 2026-04-27 17:48 | 40.65234 | -73.35391 | 15018 ft | 286 kts | 14° |
| 2026-04-27 17:48 | 40.67151 | -73.34702 | 14675 ft | 285 kts | 14° |
| 2026-04-27 17:49 | 40.69058 | -73.34016 | 14334 ft | 285 kts | 14° |
| 2026-04-27 17:49 | 40.70968 | -73.33328 | 13997 ft | 284 kts | 14° |
| 2026-04-27 17:49 | 40.72844 | -73.32652 | 13623 ft | 283 kts | 14° |
| 2026-04-27 17:49 | 40.74736 | -73.31973 | 13272 ft | 281 kts | 15° |
| 2026-04-27 17:50 | 40.76615 | -73.31291 | 13023 ft | 278 kts | 16° |
| 2026-04-27 17:50 | 40.79914 | -73.28621 | 13018 ft | 285 kts | 45° |
| 2026-04-27 17:50 | 40.81092 | -73.26507 | 13015 ft | 288 kts | 54° |
| 2026-04-27 17:51 | 40.82179 | -73.24290 | 13011 ft | 287 kts | 54° |
| 2026-04-27 17:51 | 40.83266 | -73.22076 | 13005 ft | 287 kts | 54° |
| 2026-04-27 17:51 | 40.84353 | -73.19864 | 13009 ft | 287 kts | 54° |
| 2026-04-27 17:51 | 40.85441 | -73.17653 | 13012 ft | 288 kts | 54° |
| 2026-04-27 17:52 | 40.86531 | -73.15434 | 13009 ft | 287 kts | 53° |
| 2026-04-27 17:52 | 40.87829 | -73.13477 | 12955 ft | 282 kts | 36° |
| 2026-04-27 17:52 | 40.89549 | -73.12316 | 12612 ft | 278 kts | 14° |
| 2026-04-27 17:52 | 40.90810 | -73.12095 | 12372 ft | 277 kts | 360° |
| 2026-04-27 17:53 | 40.93290 | -73.12987 | 11913 ft | 281 kts | 332° |
| 2026-04-27 17:53 | 40.94768 | -73.14698 | 11550 ft | 287 kts | 313° |
| 2026-04-27 17:53 | 40.96054 | -73.16720 | 11176 ft | 287 kts | 313° |
| 2026-04-27 17:53 | 40.97337 | -73.18736 | 10827 ft | 287 kts | 314° |
| 2026-04-27 17:54 | 40.98620 | -73.20749 | 10433 ft | 284 kts | 314° |
| 2026-04-27 17:54 | 40.99893 | -73.22744 | 9797 ft | 283 kts | 314° |
| 2026-04-27 17:54 | 41.01164 | -73.24732 | 9175 ft | 282 kts | 314° |
| 2026-04-27 17:54 | 41.02414 | -73.26689 | 8650 ft | 283 kts | 313° |
| 2026-04-27 17:55 | 41.03678 | -73.28672 | 8328 ft | 281 kts | 313° |
| 2026-04-27 17:55 | 41.04932 | -73.30639 | 7998 ft | 280 kts | 313° |
| 2026-04-27 17:55 | 41.06191 | -73.32610 | 7664 ft | 279 kts | 313° |
| 2026-04-27 17:55 | 41.07439 | -73.34565 | 7345 ft | 278 kts | 313° |
| 2026-04-27 17:56 | 41.08746 | -73.36425 | 7022 ft | 274 kts | 323° |
| 2026-04-27 17:56 | 41.10253 | -73.37970 | 6720 ft | 273 kts | 327° |
| 2026-04-27 17:56 | 41.11787 | -73.39449 | 6445 ft | 273 kts | 327° |
| 2026-04-27 17:56 | 41.13317 | -73.40919 | 6160 ft | 271 kts | 327° |
| 2026-04-27 17:57 | 41.14845 | -73.42386 | 5820 ft | 271 kts | 327° |
| 2026-04-27 17:57 | 41.16372 | -73.43847 | 5523 ft | 270 kts | 327° |
| 2026-04-27 17:57 | 41.17901 | -73.45313 | 5228 ft | 270 kts | 327° |
| 2026-04-27 17:57 | 41.19312 | -73.46944 | 4922 ft | 272 kts | 309° |
| 2026-04-27 17:58 | 41.20128 | -73.49210 | 4572 ft | 274 kts | 289° |
| 2026-04-27 17:58 | 41.20673 | -73.51631 | 4283 ft | 273 kts | 287° |
| 2026-04-27 17:58 | 41.21183 | -73.54043 | 4060 ft | 269 kts | 287° |
| 2026-04-27 17:58 | 41.21687 | -73.56425 | 4006 ft | 262 kts | 287° |
| 2026-04-27 17:59 | 41.22169 | -73.58698 | 4011 ft | 251 kts | 287° |
| 2026-04-27 17:59 | 41.22636 | -73.60924 | 4013 ft | 250 kts | 287° |
| 2026-04-27 17:59 | 41.23101 | -73.63151 | 4010 ft | 250 kts | 287° |
| 2026-04-27 17:59 | 41.23566 | -73.65345 | 3953 ft | 242 kts | 287° |
| 2026-04-27 18:00 | 41.24005 | -73.67456 | 3835 ft | 233 kts | 285° |
| 2026-04-27 18:00 | 41.24033 | -73.69568 | 3643 ft | 230 kts | 256° |
| 2026-04-27 18:00 | 41.23515 | -73.71563 | 3433 ft | 228 kts | 248° |
| 2026-04-27 18:00 | 41.22913 | -73.73511 | 3149 ft | 227 kts | 246° |
| 2026-04-27 18:01 | 41.22179 | -73.75345 | 2842 ft | 225 kts | 227° |
| 2026-04-27 18:01 | 41.21060 | -73.76688 | 2697 ft | 217 kts | 214° |
| 2026-04-27 18:01 | 41.19751 | -73.77726 | 2214 ft | 223 kts | 202° |
| 2026-04-27 18:01 | 41.18277 | -73.78349 | 1974 ft | 219 kts | 186° |
| 2026-04-27 18:02 | 41.16835 | -73.78337 | 1891 ft | 197 kts | 166° |
| 2026-04-27 18:02 | 41.15669 | -73.77680 | 1844 ft | 173 kts | 141° |
| 2026-04-27 18:02 | 41.14737 | -73.76786 | 1750 ft | 157 kts | 145° |
| 2026-04-27 18:02 | 41.13817 | -73.76114 | 1656 ft | 143 kts | 148° |
| 2026-04-27 18:03 | 41.12937 | -73.75467 | 1540 ft | 143 kts | 146° |
| 2026-04-27 18:03 | 41.12090 | -73.74791 | 1501 ft | 142 kts | 146° |
| 2026-04-27 18:03 | 41.11244 | -73.74115 | 1310 ft | 143 kts | 147° |
| 2026-04-27 18:03 | 41.10386 | -73.73505 | 1108 ft | 139 kts | 149° |
| 2026-04-27 18:04 | 41.09559 | -73.72866 | 936 ft | 137 kts | 148° |
| 2026-04-27 18:04 | 41.08745 | -73.72235 | 754 ft | 135 kts | 150° |
| 2026-04-27 18:04 | 41.07944 | -73.71626 | 576 ft | 135 kts | 148° |
| 2026-04-27 18:04 | 41.07146 | -73.71013 | 429 ft | 122 kts | 149° |
| 2026-04-27 18:05 | 41.06560 | -73.70569 | 402 ft | 58 kts | 151° |
| 2026-04-27 18:05 | 41.06383 | -73.70427 | 398 ft | 20 kts | 131° |
| 2026-04-27 18:05 | 41.06355 | -73.70302 | 390 ft | 9 kts | 101° |
| 2026-04-27 18:05 | 41.06348 | -73.70220 | 393 ft | 7 kts | 75° |
| 2026-04-27 18:06 | 41.06390 | -73.70217 | 394 ft | 7 kts | 329° |
| 2026-04-27 18:06 | 41.06392 | -73.70219 | 394 ft | 0 kts | 328° |
| 2026-04-27 18:07 | 41.06393 | -73.70220 | 394 ft | 1 kts | 328° |
| 2026-04-27 18:07 | 41.06403 | -73.70229 | 392 ft | 3 kts | 326° |
| 2026-04-27 18:08 | 41.06429 | -73.70251 | 393 ft | 7 kts | 328° |
| 2026-04-27 18:08 | 41.06474 | -73.70287 | 396 ft | 8 kts | 328° |
| 2026-04-27 18:08 | 41.06527 | -73.70329 | 401 ft | 9 kts | 329° |
| 2026-04-27 18:08 | 41.06580 | -73.70370 | 403 ft | 9 kts | 330° |
| 2026-04-27 18:09 | 41.06640 | -73.70415 | 404 ft | 10 kts | 330° |
| 2026-04-27 18:09 | 41.06699 | -73.70460 | 406 ft | 9 kts | 330° |
| 2026-04-27 18:09 | 41.06750 | -73.70499 | 409 ft | 8 kts | 330° |
| 2026-04-27 18:09 | 41.06796 | -73.70535 | 410 ft | 7 kts | 330° |
| 2026-04-27 18:10 | 41.06838 | -73.70555 | 410 ft | 4 kts | 36° |
| 2026-04-27 18:10 | 41.06840 | -73.70513 | 410 ft | 0 kts | 100° |
| 2026-04-27 18:10 | 41.06839 | -73.70503 | 410 ft | 1 kts | 97° |
| 2026-04-27 18:10 | 41.06838 | -73.70494 | 410 ft | 0 kts | 94° |